Relevés horaires Beauvechain (Belgique)


Relevés horaires à Beauvechain - Samedi 19 Janv. 2019
Heure UTC1 Température [°C] Vent [km/h] Hum. [%] Pres.4 [hPa] Visi. [Km] Nébu. [octa] Préc.5 [mm] Cond.
2m. Res. Ros. Dir.2 Vit. Moy. Raf.3
23:00 -2.1 -2.1 -4.9 NNO 1.9 -- 5.6 81 1013.6(0.4/3h) 20 -- -- --
22:00 -2.0 -2.0 -4.6 NNO 1.9 -- 5.6 82 1013.3(0.2/3h) 19 -- -- --
21:00 -1.3 -1.3 -4.6 NNO 3.7 -- 7.4 78 1013.2(0.0/3h) 19 -- -- --
20:00 -0.6 -0.6 -4.7 E 3.7 -- 5.6 74 1013(0.0/3h) 20 -- -- --
19:00 -0.3 -0.3 -4.6 E 3.7 -- 7.4 73 1013(-0.1/3h) 20 -- -- --
18:00 0.0 0.0 -4.5 E 3.7 -- 9.3 72 1013.1(-0.3/3h) 20 -- -- --
17:00 0.2 0.2 -4.1 NNO 1.9 -- 5.6 73 1012.8(-0.9/3h) 20 -- -- --
16:00 1.2 1.2 -4.1 NNO 3.7 -- 7.4 68 1013.1(-1.4/3h) 20 -- -- --
15:00 2.1 2.1 -3.7 ESE 3.7 -- 9.3 65 1013.2(-1.8/3h) 20 -- -- --
14:00 2.3 0.8 -3.3 ESE 5.6 -- 9.3 66 1013.7(-2.1/3h) 20 -- -- --
13:00 1.8 0.2 -3.9 ESE 5.6 -- 9.3 66 1014.5(-1.7/3h) 20 -- -- --
12:00 1.5 -0.1 -3.6 ESE 5.6 -- 9.3 69 1015.2(-1.1/3h) 19 -- -- --
11:00 0.6 -1.2 -3.5 ESE 5.6 -- 9.3 74 1016(-0.5/3h) 15 -- -- --
10:00 -0.2 -2.1 -3.6 ESE 5.6 -- 9.3 78 1016.3(0.0/3h) 20 -- -- --
10:00 -0.2 -2.1 -3.6 ESE 5.6 -- 9.3 78 1016.3(0.0/3h) 20 -- -- --
09:00 -1.6 -1.6 -4.2 ESE 3.7 -- 7.4 82 1016.6(-0.1/3h) 16 -- -- --
09:00 -1.6 -1.6 -4.2 ESE 3.7 -- 7.4 82 1016.6(-0.1/3h) 16 -- -- --
08:00 -2.6 -2.6 -4.6 E 3.7 -- 5.6 86 1016.7(-0.5/3h) 14 -- -- --
08:00 -2.6 -2.6 -4.6 E 3.7 -- 5.6 86 1016.7(-0.5/3h) 14 -- -- --
07:00 -2.6 -2.6 -4.5 E 3.7 -- 7.4 87 1016.6(-1.0/3h) 14 -- -- --
06:00 -2.3 -2.3 -4.5 E 3.7 -- 7.4 85 1016.7(-1.2/3h) 17 -- -- --
05:00 -2.0 -2.0 -4.3 ESE 3.7 -- 5.6 84 1017.2(-1.2/3h) 19 -- -- --
04:00 -2.0 -2.0 -4.3 ESE 3.7 -- 5.6 84 1017.7(-1.0/3h) 20 -- -- --
03:00 -1.9 -1.9 -4.1 E 3.7 -- 7.4 85 1018(-1.1/3h) 19 -- -- --

1 Coordinated Universal Time. Actuellement il est 19:00 locale et 18:00 UTC.

2 Le vent souffle depuis la direction indiquée vers la direction oposée.

3 Les rafales max. sont disponible 40 min après l'heure du relevé.

4 Pour les stations d'altitude (plus de 600m) le géopotentiel du niveau le plus proche de la pression obligatoire est indiqué.

5 Les stations disposant d'un diffuseur peuvent indiquer "trace". Cela signifie que des précipitations ont touchés le sol mais que la quantité est inférieure à 0.1 mm.

Récapitulatif de la journée
Température [°C] Vent [km/h] Ensoleillement4 [h] Precipitations totale5 [mm] Pression [Hpa]
Min1 Max.2 Moy.3 Max. Min Max.
-2.5 2.3 0 9.3 0 h 0 min 0 1012.8 1018.0

1 Température minimale relevée entre 18:00 UTC la veille et 18:00 UTC le jour donné.

2 Température maximale relevée entre 06:00 UTC le jour donné et 06:00 UTC le lendemain.

3 Vent moyen de la journée basé sur les relevés horaires.

4 Ensoleillement en heures relevé entre 06:00 UTC la veille et 06:00 UTC le jour donné.

5 Précipitations totales tombées entre 06:00 UTC la jour donné et 06:00 UTC le lendemain.

Graphiques horaires